createdAt,value
2017-06-02T00:00:52.429Z,49.70
2017-06-02T00:03:20.723Z,49.90
2017-06-02T00:05:48.995Z,49.90
2017-06-02T00:08:17.611Z,50.00
2017-06-02T00:10:45.898Z,50.70
2017-06-02T00:13:14.167Z,50.90
2017-06-02T00:15:42.803Z,50.80
2017-06-02T00:18:11.073Z,51.10
2017-06-02T00:20:39.353Z,50.80
2017-06-02T00:23:07.990Z,50.80
2017-06-02T00:25:36.265Z,50.80
2017-06-02T00:28:04.536Z,50.90
2017-06-02T00:30:33.125Z,51.10
2017-06-02T00:33:01.397Z,51.60
2017-06-02T00:35:29.674Z,51.90
2017-06-02T00:37:58.290Z,51.80
2017-06-02T00:40:26.563Z,52.10
2017-06-02T00:42:54.835Z,52.30
2017-06-02T00:45:23.477Z,52.40
2017-06-02T00:47:51.758Z,52.60
2017-06-02T00:50:20.052Z,53.00
2017-06-02T00:52:48.656Z,53.00
2017-06-02T00:55:16.932Z,53.10
2017-06-02T00:57:45.210Z,53.20
2017-06-02T01:00:13.855Z,53.50
2017-06-02T01:02:42.131Z,53.70
2017-06-02T01:05:10.410Z,53.80
2017-06-02T01:07:39.149Z,54.20
2017-06-02T01:10:07.426Z,54.10
2017-06-02T01:12:35.716Z,54.30
2017-06-02T01:15:04.335Z,55.00
2017-06-02T01:17:32.615Z,54.90
2017-06-02T01:20:00.886Z,55.00
2017-06-02T01:22:29.530Z,55.40
2017-06-02T01:24:57.819Z,54.80
2017-06-02T01:27:26.095Z,54.60
2017-06-02T01:29:54.675Z,55.40
2017-06-02T01:32:22.951Z,54.90
2017-06-02T01:34:51.226Z,55.00
2017-06-02T01:37:19.825Z,55.20
2017-06-02T01:39:47.381Z,55.10
2017-06-02T01:42:15.651Z,55.00
2017-06-02T01:44:44.297Z,54.80
2017-06-02T01:47:12.579Z,55.40
2017-06-02T01:49:40.897Z,55.40
2017-06-02T01:52:09.470Z,55.40
2017-06-02T01:54:37.839Z,55.30
2017-06-02T01:57:06.105Z,55.70
2017-06-02T01:59:34.796Z,55.80
2017-06-02T02:02:03.073Z,56.10
2017-06-02T02:04:31.343Z,55.90
2017-06-02T02:06:59.934Z,55.50
2017-06-02T02:09:28.210Z,55.50
2017-06-02T02:11:56.507Z,55.70
2017-06-02T02:14:25.143Z,56.20
2017-06-02T02:16:53.415Z,56.20
2017-06-02T02:19:21.687Z,55.80
2017-06-02T02:21:50.358Z,54.90
2017-06-02T02:24:18.655Z,54.50
2017-06-02T02:26:46.946Z,54.40
2017-06-02T02:29:15.603Z,54.80
2017-06-02T02:31:43.878Z,54.00
2017-06-02T02:34:12.262Z,53.90
2017-06-02T02:36:40.830Z,53.80
2017-06-02T02:39:09.102Z,53.80
2017-06-02T02:41:37.373Z,53.50
2017-06-02T02:44:05.970Z,54.20
2017-06-02T02:46:34.252Z,54.80
2017-06-02T02:49:02.540Z,55.00
2017-06-02T02:51:31.132Z,55.40
2017-06-02T02:53:59.420Z,55.70
2017-06-02T02:56:27.695Z,56.10
2017-06-02T02:58:56.403Z,56.20
2017-06-02T03:01:24.680Z,56.40
2017-06-02T03:03:52.954Z,56.70
2017-06-02T03:06:21.583Z,56.90
2017-06-02T03:08:49.854Z,57.10
2017-06-02T03:11:17.367Z,57.10
2017-06-02T03:13:45.959Z,57.30
2017-06-02T03:16:14.234Z,57.40
2017-06-02T03:18:42.511Z,57.60
2017-06-02T03:21:11.144Z,57.50
2017-06-02T03:23:39.438Z,57.30
2017-06-02T03:26:07.715Z,57.40
2017-06-02T03:28:36.275Z,57.60
2017-06-02T03:31:04.567Z,57.00
2017-06-02T03:33:32.846Z,56.00
2017-06-02T03:36:01.418Z,55.40
2017-06-02T03:38:29.703Z,55.40
2017-06-02T03:40:57.983Z,55.30
2017-06-02T03:43:26.539Z,56.30
2017-06-02T03:45:54.815Z,55.90
2017-06-02T03:48:23.091Z,55.90
2017-06-02T03:50:51.718Z,55.50
2017-06-02T03:53:20.008Z,55.30
2017-06-02T03:55:48.288Z,55.70
2017-06-02T03:58:16.927Z,54.90
2017-06-02T04:00:45.224Z,54.80
2017-06-02T04:03:13.520Z,55.50
2017-06-02T04:05:42.104Z,54.90
2017-06-02T04:08:10.383Z,55.20
2017-06-02T04:10:38.657Z,54.70
2017-06-02T04:13:07.309Z,55.50
2017-06-02T04:15:35.600Z,55.00
2017-06-02T04:18:03.887Z,54.80
2017-06-02T04:20:32.584Z,54.80
2017-06-02T04:23:00.879Z,54.40
2017-06-02T04:25:29.174Z,53.90
2017-06-02T04:27:57.745Z,53.70
2017-06-02T04:30:26.034Z,54.00
2017-06-02T04:32:54.320Z,53.80
2017-06-02T04:35:23.086Z,54.10
2017-06-02T04:37:51.424Z,54.30
2017-06-02T04:40:19.723Z,54.60
2017-06-02T04:42:48.374Z,54.70
2017-06-02T04:45:16.665Z,54.30
2017-06-02T04:47:44.962Z,53.40
2017-06-02T04:50:13.560Z,52.80
2017-06-02T04:52:41.862Z,52.10
2017-06-02T04:55:10.177Z,51.30
2017-06-02T04:57:38.879Z,50.60
2017-06-02T05:00:07.185Z,50.50
2017-06-02T05:02:35.498Z,50.40
2017-06-02T05:05:04.158Z,50.00
2017-06-02T05:07:32.471Z,50.10
2017-06-02T05:10:00.767Z,51.00
2017-06-02T05:12:29.433Z,51.10
2017-06-02T05:14:57.733Z,50.80
2017-06-02T05:17:26.024Z,51.10
2017-06-02T05:19:54.592Z,50.10
2017-06-02T05:22:22.904Z,49.70
2017-06-02T05:24:51.197Z,49.80
2017-06-02T05:27:19.833Z,50.10
2017-06-02T05:29:47.363Z,50.10
2017-06-02T05:32:15.661Z,50.20
2017-06-02T05:34:44.280Z,50.00
2017-06-02T05:37:12.575Z,49.70
2017-06-02T05:39:40.885Z,48.50
2017-06-02T05:42:09.485Z,47.80
2017-06-02T05:44:37.790Z,47.50
2017-06-02T05:47:06.106Z,47.80
2017-06-02T05:49:34.695Z,48.10
2017-06-02T05:52:03.009Z,48.30
2017-06-02T05:54:31.313Z,48.00
2017-06-02T05:56:59.994Z,47.60
2017-06-02T05:59:28.294Z,46.80
2017-06-02T06:01:56.585Z,46.90
2017-06-02T06:04:25.285Z,47.40
2017-06-02T06:06:53.593Z,47.20
2017-06-02T06:09:21.886Z,46.70
2017-06-02T06:11:50.573Z,46.40
2017-06-02T06:14:18.888Z,46.80
2017-06-02T06:16:47.191Z,46.60
2017-06-02T06:19:15.848Z,46.20
2017-06-02T06:21:44.144Z,46.00
2017-06-02T06:24:12.453Z,46.70
2017-06-02T06:26:41.166Z,46.20
2017-06-02T06:29:09.504Z,46.00
2017-06-02T06:31:37.797Z,45.50
2017-06-02T06:34:06.454Z,45.40
2017-06-02T06:36:34.764Z,44.70
2017-06-02T06:39:03.058Z,44.00
2017-06-02T06:41:31.669Z,44.30
2017-06-02T06:43:59.960Z,44.40
2017-06-02T06:46:28.253Z,43.60
2017-06-02T06:48:56.912Z,43.10
2017-06-02T06:51:25.229Z,42.10
2017-06-02T06:53:53.526Z,42.10
2017-06-02T06:56:22.116Z,42.70
2017-06-02T06:58:50.397Z,41.90
2017-06-02T07:01:18.696Z,42.80
2017-06-02T07:03:47.304Z,42.40
2017-06-02T07:06:15.604Z,42.30
2017-06-02T07:08:43.907Z,41.90
2017-06-02T07:11:12.621Z,41.90
2017-06-02T07:13:40.939Z,41.00
2017-06-02T07:16:09.235Z,40.50
2017-06-02T07:18:37.815Z,41.00
2017-06-02T07:21:06.120Z,41.00
2017-06-02T07:23:34.416Z,41.40
2017-06-02T07:26:03.081Z,40.10
2017-06-02T07:28:31.384Z,39.70
2017-06-02T07:30:59.684Z,38.70
2017-06-02T07:33:28.377Z,38.90
2017-06-02T07:35:56.681Z,38.70
2017-06-02T07:38:24.975Z,38.60
2017-06-02T07:40:53.576Z,38.10
2017-06-02T07:43:21.873Z,38.00
2017-06-02T07:45:50.164Z,36.20
2017-06-02T07:48:18.759Z,35.60
2017-06-02T07:50:47.039Z,35.70
2017-06-02T07:53:15.322Z,35.30
2017-06-02T07:55:43.959Z,35.90
2017-06-02T07:58:12.239Z,35.80
2017-06-02T08:00:40.529Z,35.50
2017-06-02T08:03:09.151Z,36.00
2017-06-02T08:05:37.443Z,34.60
2017-06-02T08:08:05.726Z,34.00
2017-06-02T08:10:34.348Z,31.40
2017-06-02T08:13:02.645Z,31.70
2017-06-02T08:15:30.928Z,32.70
2017-06-02T08:17:59.491Z,32.60
2017-06-02T08:20:27.788Z,32.40
2017-06-02T08:22:56.067Z,31.20
2017-06-02T08:25:24.725Z,30.10
2017-06-02T08:27:53.033Z,30.20
2017-06-02T08:30:21.323Z,29.60
2017-06-02T08:32:49.923Z,29.70
2017-06-02T08:35:18.216Z,28.60
2017-06-02T08:37:46.521Z,29.30
2017-06-02T08:40:15.190Z,29.60
2017-06-02T08:42:43.476Z,28.80
2017-06-02T08:45:11.800Z,28.10
2017-06-02T08:47:40.392Z,28.10
2017-06-02T08:50:08.688Z,27.40
2017-06-02T08:52:36.993Z,27.60
2017-06-02T08:55:05.584Z,28.10
2017-06-02T08:57:33.868Z,28.10
2017-06-02T09:00:02.164Z,27.50
2017-06-02T09:02:30.760Z,26.90
2017-06-02T09:04:59.051Z,27.60
2017-06-02T09:07:27.364Z,28.20
2017-06-02T09:09:55.957Z,26.70
2017-06-02T09:12:24.243Z,27.00
2017-06-02T09:14:52.547Z,26.80
2017-06-02T09:17:21.155Z,26.60
2017-06-02T09:19:49.452Z,26.80
2017-06-02T09:22:17.756Z,26.70
2017-06-02T09:24:46.453Z,27.00
2017-06-02T09:27:14.735Z,26.50
2017-06-02T09:29:43.024Z,26.30
2017-06-02T09:32:11.643Z,25.80
2017-06-02T09:34:39.945Z,26.10
2017-06-02T09:37:08.241Z,26.00
2017-06-02T09:39:36.825Z,25.60
2017-06-02T09:42:05.129Z,25.60
2017-06-02T09:44:33.428Z,25.80
2017-06-02T09:47:02.009Z,25.60
2017-06-02T09:49:30.304Z,26.00
2017-06-02T09:51:58.585Z,26.50
2017-06-02T09:54:27.249Z,25.20
2017-06-02T09:56:55.597Z,25.30
2017-06-02T09:59:23.909Z,25.70
2017-06-02T10:01:52.510Z,25.30
2017-06-02T10:04:20.806Z,24.70
2017-06-02T10:06:49.089Z,26.00
2017-06-02T10:09:17.705Z,25.40
2017-06-02T10:11:46.004Z,25.10
2017-06-02T10:14:14.301Z,25.30
2017-06-02T10:16:42.896Z,25.10
2017-06-02T10:19:11.181Z,25.20
2017-06-02T10:21:39.472Z,25.30
2017-06-02T10:24:08.036Z,25.20
2017-06-02T10:26:36.316Z,25.90
2017-06-02T10:29:04.606Z,24.80
2017-06-02T10:31:33.170Z,25.40
2017-06-02T10:34:01.455Z,25.50
2017-06-02T10:36:29.744Z,25.60
2017-06-02T10:38:58.352Z,24.80
2017-06-02T10:41:25.884Z,24.80
2017-06-02T10:43:54.169Z,24.50
2017-06-02T10:46:22.846Z,25.20
2017-06-02T10:48:51.162Z,24.70
2017-06-02T10:51:19.450Z,24.50
2017-06-02T10:53:48.032Z,24.50
2017-06-02T10:56:16.312Z,24.50
2017-06-02T10:58:44.592Z,24.00
2017-06-02T11:01:13.226Z,23.40
2017-06-02T11:03:41.517Z,23.60
2017-06-02T11:06:09.821Z,23.80
2017-06-02T11:08:38.410Z,23.70
2017-06-02T11:11:06.718Z,23.90
2017-06-02T11:13:35.013Z,23.60
2017-06-02T11:16:03.591Z,23.40
2017-06-02T11:18:31.899Z,23.80
2017-06-02T11:21:00.201Z,23.20
2017-06-02T11:23:28.828Z,22.90
2017-06-02T11:25:57.133Z,23.20
2017-06-02T11:28:25.426Z,23.90
2017-06-02T11:30:54.092Z,23.10
2017-06-02T11:33:22.393Z,22.90
2017-06-02T11:35:50.673Z,22.30
2017-06-02T11:38:19.281Z,23.10
2017-06-02T11:40:47.610Z,22.80
2017-06-02T11:43:15.905Z,22.60
2017-06-02T11:45:44.490Z,22.60
2017-06-02T11:48:12.787Z,22.60
2017-06-02T11:50:41.068Z,22.70
2017-06-02T11:53:09.752Z,22.60
2017-06-02T11:55:38.034Z,22.70
2017-06-02T11:58:06.322Z,22.50
2017-06-02T12:00:34.952Z,23.20
2017-06-02T12:03:03.236Z,22.50
2017-06-02T12:05:31.528Z,22.60
2017-06-02T12:08:00.137Z,22.90
2017-06-02T12:10:28.435Z,23.30
2017-06-02T12:12:58.912Z,22.60
2017-06-02T12:15:27.582Z,22.30
2017-06-02T12:17:55.869Z,22.40
2017-06-02T12:20:24.147Z,21.90
2017-06-02T12:22:52.784Z,22.30
2017-06-02T12:25:21.075Z,22.20
2017-06-02T12:27:49.379Z,22.90
2017-06-02T12:30:18.064Z,22.40
2017-06-02T12:32:46.349Z,21.90
2017-06-02T12:35:14.672Z,21.90
2017-06-02T12:37:43.258Z,21.70
2017-06-02T12:40:11.556Z,21.80
2017-06-02T12:42:39.855Z,21.60
2017-06-02T12:45:08.461Z,21.80
2017-06-02T12:47:36.762Z,21.60
2017-06-02T12:50:05.046Z,21.70
2017-06-02T12:52:33.636Z,21.90
2017-06-02T12:55:01.929Z,22.30
2017-06-02T12:57:30.224Z,21.30
2017-06-02T12:59:58.828Z,21.90
2017-06-02T13:02:27.112Z,22.30
2017-06-02T13:04:55.402Z,21.60
2017-06-02T13:07:24.007Z,21.80
2017-06-02T13:09:52.297Z,21.30
2017-06-02T13:12:20.580Z,20.80
2017-06-02T13:14:49.309Z,20.80
2017-06-02T13:17:17.633Z,20.70
2017-06-02T13:19:45.933Z,20.90
2017-06-02T13:22:14.622Z,22.00
2017-06-02T13:24:42.908Z,20.00
2017-06-02T13:27:11.213Z,21.30
2017-06-02T13:29:39.902Z,20.20
2017-06-02T13:32:08.193Z,20.10
2017-06-02T13:34:36.484Z,20.50
2017-06-02T13:37:05.092Z,21.10
2017-06-02T13:39:33.383Z,20.40
2017-06-02T13:42:01.677Z,19.70
2017-06-02T13:44:30.265Z,19.60
2017-06-02T13:46:58.543Z,19.80
2017-06-02T13:49:26.833Z,20.10
2017-06-02T13:51:55.512Z,19.40
2017-06-02T13:54:23.799Z,19.30
2017-06-02T13:56:52.093Z,19.70
2017-06-02T13:59:20.769Z,19.90
2017-06-02T14:01:49.056Z,19.90
2017-06-02T14:04:17.359Z,20.80
2017-06-02T14:06:46.272Z,20.00
2017-06-02T14:09:14.559Z,20.10
2017-06-02T14:11:46.901Z,18.10
2017-06-02T14:14:15.572Z,19.30
2017-06-02T14:16:44.446Z,19.80
2017-06-02T14:19:12.748Z,19.50
2017-06-02T14:21:41.369Z,19.80
2017-06-02T14:24:09.680Z,20.40
2017-06-02T14:26:37.990Z,20.00
2017-06-02T14:29:06.574Z,20.70
2017-06-02T14:31:34.857Z,20.00
2017-06-02T14:34:03.132Z,20.00
2017-06-02T14:36:31.736Z,19.80
2017-06-02T14:39:00.029Z,19.40
2017-06-02T14:41:28.320Z,19.10
2017-06-02T14:43:56.929Z,19.30
2017-06-02T14:46:25.204Z,19.80
2017-06-02T14:48:53.507Z,20.70
2017-06-02T14:51:22.128Z,19.70
2017-06-02T14:53:50.403Z,19.90
2017-06-02T14:56:18.714Z,20.40
2017-06-02T14:58:47.320Z,20.40
2017-06-02T15:01:15.639Z,20.20
2017-06-02T15:03:43.925Z,20.60
2017-06-02T15:06:12.612Z,20.20
2017-06-02T15:08:41.146Z,20.60
2017-06-02T15:11:09.430Z,20.60
2017-06-02T15:13:38.865Z,21.00
2017-06-02T15:16:07.158Z,21.10
2017-06-02T15:18:35.462Z,21.40
2017-06-02T15:21:04.119Z,21.80
2017-06-02T15:23:32.424Z,21.60
2017-06-02T15:26:00.716Z,21.60
2017-06-02T15:28:29.324Z,22.20
2017-06-02T15:30:57.629Z,22.00
2017-06-02T15:33:25.915Z,22.00
2017-06-02T15:35:54.607Z,22.10
2017-06-02T15:38:22.885Z,21.40
2017-06-02T15:40:51.180Z,21.40
2017-06-02T15:43:19.786Z,22.40
2017-06-02T15:45:48.118Z,22.60
2017-06-02T15:48:16.396Z,22.30
2017-06-02T15:50:44.988Z,22.20
2017-06-02T15:53:13.275Z,23.40
2017-06-02T15:55:41.548Z,23.00
2017-06-02T15:58:10.120Z,22.30
2017-06-02T16:00:38.428Z,22.70
2017-06-02T16:03:06.711Z,23.10
2017-06-02T16:05:35.356Z,23.00
2017-06-02T16:08:03.637Z,23.20
2017-06-02T16:10:31.921Z,23.50
2017-06-02T16:13:00.557Z,24.10
2017-06-02T16:15:28.840Z,23.80
2017-06-02T16:17:57.121Z,23.20
2017-06-02T16:20:25.761Z,23.70
2017-06-02T16:22:54.044Z,23.00
2017-06-02T16:25:22.344Z,23.30
2017-06-02T16:27:51.057Z,23.40
2017-06-02T16:30:19.341Z,23.20
2017-06-02T16:32:47.632Z,23.50
2017-06-02T16:35:16.345Z,22.80
2017-06-02T16:37:44.680Z,23.20
2017-06-02T16:40:12.966Z,23.70
2017-06-02T16:42:41.581Z,23.90
2017-06-02T16:45:09.877Z,23.40
2017-06-02T16:47:38.160Z,23.70
2017-06-02T16:50:06.820Z,23.70
2017-06-02T16:52:35.119Z,23.10
2017-06-02T16:55:03.444Z,23.10
2017-06-02T16:57:32.137Z,23.60
2017-06-02T17:00:00.424Z,23.20
2017-06-02T17:02:28.712Z,23.00
2017-06-02T17:04:57.325Z,23.20
2017-06-02T17:07:25.623Z,22.40
2017-06-02T17:09:53.909Z,23.30
2017-06-02T17:12:22.481Z,23.00
2017-06-02T17:14:50.791Z,24.20
2017-06-02T17:17:44.932Z,23.60
2017-06-02T17:20:12.444Z,23.40
2017-06-02T17:22:39.960Z,23.70
2017-06-02T17:25:08.576Z,23.70
2017-06-02T17:27:36.089Z,23.60
2017-06-02T17:30:03.651Z,24.20
2017-06-02T17:32:31.540Z,24.30
2017-06-02T17:34:59.082Z,24.60
2017-06-02T17:37:26.620Z,25.30
2017-06-02T17:39:54.459Z,25.00
2017-06-02T17:42:21.996Z,25.20
2017-06-02T17:44:49.513Z,25.00
2017-06-02T17:47:17.403Z,24.90
2017-06-02T17:49:44.935Z,25.00
2017-06-02T17:52:12.461Z,25.70
2017-06-02T17:54:40.328Z,25.10
2017-06-02T17:57:07.844Z,25.30
2017-06-02T17:59:35.379Z,25.80
2017-06-02T18:02:03.181Z,25.30
2017-06-02T18:04:30.693Z,25.70
2017-06-02T18:06:58.224Z,26.20
2017-06-02T18:09:26.105Z,25.90
2017-06-02T18:11:53.669Z,25.80
2017-06-02T18:14:21.210Z,25.00
2017-06-02T18:16:49.070Z,25.30
2017-06-02T18:19:17.432Z,25.50
2017-06-02T18:21:44.936Z,25.50
2017-06-02T18:24:12.812Z,25.90
2017-06-02T18:26:40.327Z,25.80
2017-06-02T18:29:07.835Z,25.80
2017-06-02T18:31:36.463Z,26.70
2017-06-02T18:34:03.963Z,26.80
2017-06-02T18:36:31.539Z,27.00
2017-06-02T18:38:59.390Z,26.60
2017-06-02T18:41:26.898Z,26.80
2017-06-02T18:43:54.416Z,26.60
2017-06-02T18:46:22.338Z,26.70
2017-06-02T18:48:49.888Z,26.80
2017-06-02T18:51:17.438Z,27.20
2017-06-02T18:53:45.252Z,26.80
2017-06-02T18:56:12.782Z,27.10
2017-06-02T18:58:40.308Z,27.40
2017-06-02T19:01:08.871Z,27.70
2017-06-02T19:03:37.164Z,27.50
2017-06-02T19:06:04.671Z,27.50
2017-06-02T19:08:33.253Z,28.10
2017-06-02T19:11:00.756Z,28.10
2017-06-02T19:13:28.273Z,28.90
2017-06-02T19:15:56.231Z,28.70
2017-06-02T19:18:23.790Z,28.70
2017-06-02T19:20:51.303Z,29.00
2017-06-02T19:23:19.181Z,29.30
2017-06-02T19:25:47.211Z,29.10
2017-06-02T19:28:14.761Z,29.50
2017-06-02T19:30:42.713Z,29.40
2017-06-02T19:33:10.240Z,29.50
2017-06-02T19:35:37.832Z,29.50
2017-06-02T19:38:05.664Z,29.70
2017-06-02T19:40:33.216Z,29.70
2017-06-02T19:43:00.748Z,30.00
2017-06-02T19:45:28.613Z,30.10
2017-06-02T19:47:56.117Z,30.00
2017-06-02T19:50:23.697Z,30.10
2017-06-02T19:52:51.541Z,30.80
2017-06-02T19:55:19.052Z,30.70
2017-06-02T19:57:46.561Z,30.80
2017-06-02T20:00:14.376Z,31.00
2017-06-02T20:02:41.890Z,31.10
2017-06-02T20:05:09.400Z,31.40
2017-06-02T20:07:37.315Z,31.20
2017-06-02T20:10:04.828Z,31.30
2017-06-02T20:12:32.347Z,31.70
2017-06-02T20:15:00.258Z,31.20
2017-06-02T20:17:27.767Z,31.20
2017-06-02T20:19:55.284Z,31.60
2017-06-02T20:22:23.912Z,31.30
2017-06-02T20:24:51.422Z,31.10
2017-06-02T20:27:18.920Z,31.60
2017-06-02T20:29:46.850Z,31.70
2017-06-02T20:32:14.400Z,31.90
2017-06-02T20:34:41.900Z,32.10
2017-06-02T20:37:09.786Z,32.30
2017-06-02T20:39:37.302Z,32.30
2017-06-02T20:42:04.808Z,32.40
2017-06-02T20:44:32.624Z,32.50
2017-06-02T20:47:00.147Z,32.60
2017-06-02T20:49:27.661Z,33.10
2017-06-02T20:51:55.468Z,32.90
2017-06-02T20:54:22.971Z,33.20
2017-06-02T20:56:50.482Z,33.70
2017-06-02T20:59:19.120Z,34.30
2017-06-02T21:01:46.665Z,33.70
2017-06-02T21:04:14.408Z,33.80
2017-06-02T21:06:42.261Z,33.80
2017-06-02T21:09:09.776Z,34.00
2017-06-02T21:11:37.295Z,34.00
2017-06-02T21:14:05.920Z,34.50
2017-06-02T21:16:33.437Z,34.50
2017-06-02T21:19:00.951Z,34.50
2017-06-02T21:21:29.566Z,35.00
2017-06-02T21:23:57.117Z,34.90
2017-06-02T21:26:24.666Z,35.30
2017-06-02T21:28:52.516Z,36.10
2017-06-02T21:31:20.039Z,36.60
2017-06-02T21:33:47.543Z,36.20
2017-06-02T21:36:16.265Z,36.70
2017-06-02T21:38:43.778Z,36.70
2017-06-02T21:41:11.300Z,37.00
2017-06-02T21:43:39.896Z,37.20
2017-06-02T21:46:07.399Z,37.10
2017-06-02T21:48:34.909Z,37.50
2017-06-02T21:51:02.748Z,37.40
2017-06-02T21:53:30.256Z,38.10
2017-06-02T21:55:58.556Z,38.30
2017-06-02T21:58:26.430Z,38.40
2017-06-02T22:00:53.947Z,38.40
2017-06-02T22:03:21.459Z,38.00
2017-06-02T22:05:50.064Z,38.30
2017-06-02T22:08:17.569Z,38.20
2017-06-02T22:10:45.889Z,39.00
2017-06-02T22:13:13.727Z,38.90
2017-06-02T22:15:41.288Z,38.80
2017-06-02T22:18:08.918Z,39.20
2017-06-02T22:20:36.874Z,39.20
2017-06-02T22:23:04.392Z,39.30
2017-06-02T22:25:31.961Z,39.60
2017-06-02T22:27:59.906Z,39.90
2017-06-02T22:30:27.432Z,39.90
2017-06-02T22:32:54.943Z,40.10
2017-06-02T22:35:22.845Z,40.50
2017-06-02T22:37:50.489Z,40.30
2017-06-02T22:40:18.047Z,40.60
2017-06-02T22:42:45.879Z,40.70
2017-06-02T22:45:13.391Z,41.20
2017-06-02T22:47:40.919Z,41.10
2017-06-02T22:50:09.555Z,41.50
2017-06-02T22:52:37.904Z,41.70
2017-06-02T22:55:05.416Z,41.60
2017-06-02T22:57:33.303Z,41.90
2017-06-02T23:00:00.816Z,42.00
2017-06-02T23:02:28.324Z,42.50
2017-06-02T23:04:56.124Z,42.20
2017-06-02T23:07:23.672Z,42.50
2017-06-02T23:09:51.185Z,42.40
2017-06-02T23:12:19.072Z,42.40
2017-06-02T23:14:46.579Z,42.60
2017-06-02T23:17:14.857Z,42.90
2017-06-02T23:19:42.640Z,42.90
2017-06-02T23:22:10.142Z,43.20
2017-06-02T23:24:37.656Z,43.30
2017-06-02T23:27:05.564Z,43.40
2017-06-02T23:29:33.091Z,43.70
2017-06-02T23:32:00.650Z,44.10
2017-06-02T23:34:28.477Z,43.80
2017-06-02T23:36:55.987Z,43.90
2017-06-02T23:39:23.590Z,44.20
2017-06-02T23:41:51.542Z,44.50
2017-06-02T23:44:19.086Z,44.70
2017-06-02T23:46:46.635Z,44.20
2017-06-02T23:49:14.424Z,44.60
2017-06-02T23:51:42.027Z,44.60
2017-06-02T23:54:09.524Z,45.70
2017-06-02T23:56:38.084Z,44.90
2017-06-02T23:59:06.348Z,44.80
